Weather at Jinan Yaoqiang International Airport

Public forecast

Using degrees Celsius for public forecast. Weather courtesy of forecast.io.

Current aviation weather report (METAR) for Jinan Yaoqiang International Airport

Report is more than 6 hours old.

Retrieved 2022/01/26 02:44 UTC (17 hours ago):

ZSJN 260244Z 03004MPS 2500 BR NSC 01/M04 Q1030 NOSIG

Aviation forecast (TAF) for Jinan Yaoqiang International Airport

Forecast is more than 12 hours old.

Retrieved 2021/08/27 18:04 UTC (5 months ago):

TAF ZSJN 271504Z 2718/2818 24003MPS 3500 BR NSC TX27/2806Z TN17/2721Z